Date,TemperatureHighF,TemperatureAvgF,TemperatureLowF,DewpointHighF,DewpointAvgF,DewpointLowF,HumidityHigh,HumidityAvg,HumidityLow,PressureMaxIn,PressureMinIn,WindSpeedMaxMPH,WindSpeedAvgMPH,GustSpeedMaxMPH,PrecipitationSumIn
2014-1-1,66.1,46.0,31.5,22.8,20.1,17.3,60,40,16,30.20,30.08,6,3,9,0.00
2014-1-2,65.0,49.5,32.5,23.1,21.7,19.4,65,36,18,30.24,30.10,7,3,12,0.00
2014-1-3,68.3,49.0,30.8,25.7,22.3,18.4,69,39,15,30.11,29.94,9,3,14,0.00
2014-1-4,62.7,54.9,47.7,23.6,20.1,15.0,38,26,19,29.97,29.86,14,8,20,0.00
2014-1-5,58.4,44.9,30.0,27.2,21.4,10.8,64,42,15,30.18,29.96,6,2,8,0.00
2014-1-6,57.6,42.3,23.9,17.0,7.3,1.0,66,26,14,30.35,30.18,9,4,15,0.00
2014-1-7,66.0,46.6,29.4,16.5,8.3,1.8,35,22,11,30.24,30.06,7,1,11,0.00
2014-1-8,64.6,51.5,35.6,19.9,17.6,14.5,49,28,16,30.08,29.94,10,5,15,0.00
2014-1-9,60.9,43.7,31.8,22.6,18.2,12.2,58,39,15,30.10,29.97,10,4,15,0.00
2014-1-10,60.9,47.1,32.5,25.5,20.1,15.4,58,36,18,30.16,30.02,10,4,13,0.00
2014-1-11,70.0,47.6,30.1,24.6,21.2,19.5,66,39,16,30.24,30.07,6,2,8,0.00
2014-1-12,65.3,52.5,39.5,27.2,23.1,18.9,50,33,18,30.15,29.95,13,6,20,0.00
2014-1-13,65.3,45.5,27.6,28.4,17.3,2.0,78,39,9,30.32,30.14,12,3,16,0.00
2014-1-14,62.3,44.8,27.1,17.9,11.9,4.5,56,30,10,30.36,30.27,9,3,13,0.00
2014-1-15,64.9,49.1,36.9,13.2,9.7,5.2,35,22,10,30.33,30.17,6,3,9,0.00
2014-1-16,67.6,48.0,31.7,16.6,12.4,3.1,48,27,8,30.22,30.06,8,3,11,0.00
2014-1-17,66.3,46.6,29.4,15.6,10.5,2.1,51,26,8,30.23,30.10,6,2,10,0.00
2014-1-18,67.6,47.2,29.9,14.7,9.5,0.1,45,25,7,30.20,30.10,7,2,9,0.00
2014-1-19,67.4,48.7,33.3,13.7,11.6,9.4,40,24,11,30.25,30.13,7,2,10,0.00
2014-1-20,70.3,50.8,35.9,17.6,13.3,7.8,41,25,9,30.24,30.11,8,4,11,0.00
2014-1-21,67.7,51.6,33.7,15.5,12.1,7.5,43,23,10,30.28,30.11,7,2,11,0.00
2014-1-22,72.9,55.6,39.9,25.6,17.4,12.2,36,23,12,30.11,29.82,12,4,16,0.00
2014-1-23,67.3,53.3,40.7,21.7,16.6,1.8,43,25,8,30.18,29.85,8,3,12,0.00
2014-1-24,53.6,47.3,38.8,29.4,19.4,16.3,42,33,25,30.35,30.18,8,3,12,0.00
2014-1-25,65.8,52.9,44.5,46.4,39.0,22.2,78,61,34,30.28,30.05,10,3,15,0.00
2014-1-26,64.4,51.7,38.7,39.0,32.7,26.9,79,51,31,30.08,29.93,13,4,18,0.00
2014-1-27,64.8,54.0,43.4,33.8,28.4,24.6,50,38,26,29.99,29.86,12,5,19,0.00
2014-1-28,64.8,49.0,32.5,27.2,21.1,12.2,65,37,13,30.09,29.96,8,3,10,0.00
2014-1-29,68.9,50.2,30.3,22.1,14.3,1.7,60,29,7,30.12,29.97,6,3,12,0.00
2014-1-30,71.4,60.3,52.1,26.0,18.9,9.2,31,21,13,29.99,29.76,17,8,22,0.00
2014-1-31,65.5,56.6,46.2,37.3,28.7,23.2,70,36,24,29.80,29.68,19,13,28,0.00
2014-2-1,55.1,47.1,35.8,38.4,33.7,25.8,79,61,39,29.93,29.71,14,9,21,0.00
2014-2-2,54.3,41.4,26.4,26.8,19.3,11.4,73,45,19,30.11,29.93,8,3,13,0.00
2014-2-3,53.9,39.9,27.8,33.2,18.6,5.4,91,48,16,29.99,29.78,17,6,26,0.03
2014-2-4,50.6,38.3,29.0,33.1,27.5,23.8,91,68,37,30.12,29.94,9,4,15,0.01
2014-2-5,58.5,42.6,28.1,27.8,24.6,13.2,83,53,17,30.12,29.94,10,4,17,0.00
2014-2-6,55.6,42.9,27.2,33.5,23.8,12.4,80,51,18,30.08,29.96,14,5,19,0.00
2014-2-7,57.9,45.8,36.2,33.9,30.3,26.3,84,58,30,30.15,29.97,11,5,16,0.00
2014-2-8,65.2,49.4,33.2,29.4,25.9,13.6,76,44,15,30.23,30.13,10,4,14,0.00
2014-2-9,71.2,54.5,37.7,37.2,29.5,25.8,64,40,19,30.17,29.99,13,6,20,0.00
2014-2-10,71.3,54.8,41.3,31.2,27.9,20.4,61,39,17,30.02,29.83,13,6,21,0.00
2014-2-11,66.2,51.6,37.4,34.2,27.2,20.6,74,43,18,30.07,29.88,8,4,12,0.00
2014-2-12,70.3,52.8,31.6,27.3,17.0,-0.5,63,30,6,30.15,30.01,12,4,16,0.00
2014-2-13,75.6,56.7,38.7,24.2,20.3,13.9,44,27,10,30.10,29.95,10,4,16,0.00
2014-2-14,80.1,60.4,41.8,26.0,21.5,12.0,46,25,9,30.07,29.96,9,3,13,0.00
2014-2-15,82.4,59.6,41.5,25.3,19.6,-0.7,44,26,4,30.04,29.92,11,5,21,0.00
2014-2-16,77.8,62.5,48.0,22.1,17.4,8.3,34,19,7,30.00,29.88,10,4,14,0.00
2014-2-17,78.2,60.4,44.3,22.1,16.2,1.4,38,20,5,30.04,29.90,10,3,14,0.00
2014-2-18,76.0,61.6,44.9,22.9,16.6,7.1,37,19,7,29.97,29.83,13,6,17,0.00
2014-2-19,72.3,59.9,46.6,19.8,14.3,0.1,33,18,6,29.87,29.73,12,6,19,0.00
2014-2-20,67.4,52.8,37.2,22.8,13.9,5.8,47,24,9,30.03,29.83,10,4,15,0.00
2014-2-21,71.3,52.0,34.4,10.2,6.1,-4.1,31,18,5,30.06,29.90,10,4,13,0.00
2014-2-22,71.7,55.4,40.2,12.6,4.8,-9.1,26,16,4,29.95,29.83,12,5,19,0.00
2014-2-23,70.4,58.2,45.7,31.9,16.6,7.9,33,20,11,29.99,29.90,11,3,16,0.00
2014-2-24,74.8,58.8,41.7,27.8,25.0,19.8,49,29,15,30.00,29.84,8,3,11,0.00
2014-2-25,68.6,57.3,48.0,36.0,28.4,16.2,51,34,15,29.97,29.87,15,4,20,0.00
2014-2-26,70.2,57.3,41.5,39.9,31.8,24.5,74,41,21,29.99,29.85,10,4,15,0.00
2014-2-27,71.0,56.3,41.6,34.7,31.3,27.1,65,41,21,29.95,29.78,16,6,21,0.00
2014-2-28,72.6,58.7,42.8,35.9,32.0,27.4,66,39,19,29.87,29.78,16,6,22,0.00
2014-3-1,62.2,52.0,44.7,47.0,40.2,30.3,93,68,35,29.90,29.75,22,11,30,1.29
2014-3-2,58.4,48.8,38.6,42.6,38.9,34.4,93,71,42,30.12,29.89,14,5,20,0.13
2014-3-3,65.0,52.3,42.7,42.6,39.6,30.2,92,66,29,30.08,29.90,6,2,11,0.00
2014-3-4,67.1,53.7,42.1,44.0,39.4,29.2,91,63,27,29.97,29.80,13,4,18,0.00
2014-3-5,70.5,54.3,38.2,41.9,32.0,8.3,90,52,9,30.04,29.93,7,2,10,0.00
2014-3-6,74.1,58.2,41.0,40.4,30.9,22.0,73,41,15,30.06,29.87,10,3,13,0.00
2014-3-7,69.8,58.7,48.1,40.3,33.5,23.1,63,42,19,29.89,29.73,15,7,21,0.00
2014-3-8,66.3,53.1,41.5,42.4,34.7,23.8,90,56,21,30.11,29.84,18,4,28,0.01
2014-3-9,59.9,49.1,38.0,40.1,29.8,22.0,89,51,25,30.21,30.06,16,8,25,0.01
2014-3-10,70.5,54.4,35.2,35.2,32.4,29.6,82,46,24,30.15,29.95,10,4,15,0.00
2014-3-11,67.7,56.0,44.9,34.9,29.8,25.0,64,39,20,29.96,29.84,10,4,19,0.00
2014-3-12,68.6,55.6,39.5,33.2,27.8,24.3,71,38,19,30.03,29.92,11,4,17,0.00
2014-3-13,72.8,58.2,45.6,33.1,27.9,23.8,44,32,21,29.98,29.75,13,5,18,0.00
2014-3-14,64.5,51.5,39.0,30.9,28.0,20.1,62,42,20,30.04,29.82,14,6,22,0.00
2014-3-15,65.8,53.9,38.5,30.5,21.2,-1.8,68,33,9,30.10,29.98,20,10,29,0.00
2014-3-16,64.1,53.1,42.9,15.5,8.3,1.4,29,17,9,30.23,30.09,18,5,25,0.00
2014-3-17,74.8,58.2,36.0,19.1,13.7,5.7,45,20,8,30.11,29.65,17,7,26,0.00
2014-3-18,72.8,60.3,48.2,18.3,13.2,7.0,25,16,9,29.84,29.63,13,6,18,0.00
2014-3-19,72.1,56.6,40.1,26.4,17.5,6.8,48,24,9,30.03,29.84,8,4,13,0.00
2014-3-20,73.7,58.7,39.3,24.1,18.7,12.9,46,24,10,30.04,29.84,9,4,13,0.00
2014-3-21,72.8,60.0,45.6,26.9,20.2,9.7,45,25,9,29.87,29.79,13,6,22,0.00
2014-3-22,72.1,60.0,46.3,22.2,19.8,14.7,38,22,12,29.97,29.82,13,6,19,0.00
2014-3-23,72.9,57.6,41.1,28.7,23.3,14.2,54,30,11,30.04,29.90,8,4,15,0.00
2014-3-24,74.9,59.0,41.9,26.7,23.0,18.3,48,27,13,30.01,29.87,8,4,12,0.00
2014-3-25,74.6,58.0,42.6,39.3,26.5,18.9,71,34,13,29.93,29.70,15,5,26,0.02
2014-3-26,71.0,57.9,41.6,34.9,25.7,13.1,70,33,12,29.82,29.70,20,11,27,0.00
2014-3-27,66.1,55.9,45.5,35.0,31.3,23.1,61,40,28,29.93,29.75,16,9,23,0.00
2014-3-28,68.5,53.6,38.5,30.8,26.2,22.8,65,38,19,30.09,29.93,10,4,14,0.00
2014-3-29,78.2,59.4,37.9,27.8,22.2,8.4,58,28,7,30.12,29.88,9,3,13,0.00
2014-3-30,75.1,61.6,45.7,25.9,21.0,11.3,37,23,10,29.93,29.75,16,8,26,0.00
2014-3-31,72.9,59.6,42.5,23.5,15.6,4.6,40,20,8,29.93,29.82,16,7,25,0.00
2014-4-1,72.0,60.6,50.0,23.0,4.1,-22.3,33,14,3,29.89,29.77,19,10,26,0.00
2014-4-2,65.3,55.1,44.5,27.0,12.3,-8.9,50,20,8,29.84,29.69,22,11,30,0.00
2014-4-3,62.0,48.3,33.9,30.7,19.1,7.9,65,36,12,30.01,29.83,9,3,14,0.00
2014-4-4,69.9,53.1,33.8,19.7,15.2,2.8,49,26,8,30.01,29.81,11,4,17,0.00
2014-4-5,63.7,52.3,40.9,22.5,18.6,14.2,38,27,16,29.89,29.74,12,6,17,0.00
2014-4-6,64.8,54.0,39.8,22.5,17.8,12.0,42,25,13,29.97,29.88,17,8,22,0.00
2014-4-7,75.2,59.2,39.8,20.6,15.0,-6.4,41,20,5,30.10,29.96,12,6,16,0.00
2014-4-8,81.3,63.1,40.4,23.3,13.5,1.0,41,18,5,30.16,29.99,9,4,14,0.00
2014-4-9,83.6,66.4,45.8,15.9,8.5,-5.5,26,12,3,30.04,29.89,9,4,9,0.00
2014-4-10,83.5,69.2,48.1,15.0,-16.0,-99.9,23,8,1,29.98,29.83,10,5,13,0.00
2014-4-11,82.9,71.2,56.8,26.6,18.2,9.3,21,14,8,29.89,29.71,12,5,18,0.00
2014-4-12,77.2,66.5,57.5,26.5,19.9,10.4,26,17,8,29.74,29.57,19,10,27,0.00
2014-4-13,75.9,61.5,41.6,28.9,17.2,12.2,37,19,10,29.83,29.69,12,6,19,0.00
2014-4-14,72.2,59.6,44.8,29.7,11.0,-10.0,44,20,4,29.97,29.82,8,4,16,0.00
2014-4-15,81.3,62.5,41.8,19.0,10.4,-8.6,24,14,3,29.96,29.70,11,4,18,0.00
2014-4-16,78.9,64.8,45.0,17.6,5.8,-18.6,25,12,2,29.79,29.63,14,7,22,0.00
2014-4-17,81.1,68.1,47.9,27.5,21.6,14.9,40,19,9,29.86,29.74,12,4,17,0.00
2014-4-18,68.5,59.9,48.8,48.8,38.3,23.3,86,49,20,29.87,29.76,15,4,22,0.02
2014-4-19,69.5,57.7,46.8,47.4,43.4,36.0,88,62,31,29.99,29.83,14,3,20,0.05
2014-4-20,76.3,61.2,43.2,44.9,37.9,32.1,84,47,22,30.04,29.92,6,3,9,0.00
2014-4-21,83.1,66.8,49.0,39.2,33.5,29.1,60,33,15,30.01,29.83,7,3,12,0.00
2014-4-22,84.1,70.6,51.9,37.4,30.2,16.9,51,25,9,29.86,29.64,15,7,24,0.00
2014-4-23,77.3,65.5,52.2,30.9,23.9,13.7,35,21,13,29.81,29.65,17,8,25,0.00
2014-4-24,80.7,64.6,40.7,20.4,15.3,12.2,34,16,8,29.93,29.80,12,5,19,0.00
2014-4-25,79.8,65.9,45.5,25.5,13.3,-6.8,41,16,4,29.84,29.67,16,7,24,0.00
2014-4-26,68.4,58.3,46.8,41.4,30.7,14.7,78,38,16,29.79,29.54,24,12,33,0.00
2014-4-27,68.5,55.1,40.2,40.3,31.0,23.3,85,46,19,29.88,29.77,12,5,20,0.00
2014-4-28,72.9,59.9,43.4,28.8,25.7,22.3,47,29,16,29.89,29.81,16,6,22,0.00
2014-4-29,75.5,60.4,43.1,26.9,8.7,-16.0,39,16,3,29.94,29.81,14,6,21,0.00
2014-4-30,73.1,59.1,39.2,20.4,8.5,1.3,24,14,7,29.93,29.78,11,4,16,0.00
2014-5-1,72.5,60.2,48.2,24.2,21.2,15.9,34,23,12,29.96,29.82,14,5,22,0.00
2014-5-2,79.8,61.4,43.4,28.1,17.4,2.3,43,22,5,30.03,29.87,7,2,13,0.00
2014-5-3,85.5,67.6,48.5,20.6,12.0,-4.6,27,14,3,29.97,29.81,8,3,12,0.00
2014-5-4,85.5,73.6,54.3,27.6,15.1,9.0,21,12,6,29.91,29.77,14,6,20,0.00
2014-5-5,81.3,69.6,52.6,33.4,22.6,16.3,41,19,10,29.86,29.72,12,6,21,0.00
2014-5-6,77.8,66.1,51.5,30.6,16.2,-1.5,29,17,5,29.74,29.55,18,8,28,0.00
2014-5-7,63.3,53.3,46.6,30.7,21.0,16.2,39,29,19,29.83,29.60,9,2,21,0.00
2014-5-8,72.4,58.2,39.0,29.4,22.1,7.2,57,28,9,29.96,29.83,11,4,16,0.00
2014-5-9,78.9,62.7,42.4,28.1,19.9,4.4,44,23,6,29.97,29.82,11,4,17,0.00
2014-5-10,82.5,67.5,50.5,34.2,26.6,19.3,37,23,10,29.85,29.60,15,8,22,0.00
2014-5-11,76.2,65.2,49.0,34.8,27.2,8.2,34,24,15,29.80,29.53,21,12,31,0.00
2014-5-12,75.2,59.6,39.4,16.6,10.4,-19.3,29,16,3,29.96,29.80,12,4,18,0.00
2014-5-13,76.2,63.0,42.3,22.2,14.4,3.4,34,16,6,30.05,29.94,9,4,15,0.00
2014-5-14,75.0,63.0,51.3,25.8,21.4,17.4,34,21,12,30.11,29.98,15,7,23,0.00
2014-5-15,84.0,68.0,54.0,19.2,12.2,-0.5,24,13,4,30.09,29.91,9,4,14,0.00
2014-5-16,81.4,63.2,51.0,17.4,12.7,7.9,23,15,6,29.97,29.79,9,4,15,0.00
2014-5-17,90.2,76.5,57.4,18.0,5.8,-11.8,19,8,2,29.82,29.67,12,6,20,0.00
2014-5-18,90.1,75.3,52.4,14.5,-7.3,-99.9,17,6,1,29.74,29.64,12,5,19,0.00
2014-5-19,85.4,70.9,61.0,13.7,-1.7,-26.7,12,7,1,29.76,29.70,12,5,16,0.00
2014-5-20,86.6,73.9,58.9,20.4,11.4,0.8,17,10,5,29.79,29.68,17,8,25,0.00
2014-5-21,84.0,71.1,53.9,26.6,21.6,13.9,23,16,11,29.77,29.70,18,7,33,0.00
2014-5-22,81.4,69.8,54.3,38.5,29.4,20.9,45,24,11,29.82,29.72,19,7,26,0.00
2014-5-23,77.8,64.6,49.3,34.6,21.3,2.4,38,21,6,29.83,29.73,17,6,25,0.00
2014-5-24,75.6,63.4,47.7,35.8,30.6,25.0,56,31,17,29.86,29.79,10,4,15,0.00
2014-5-25,79.1,66.7,51.3,37.9,35.1,29.2,53,32,20,29.88,29.76,13,4,18,0.00
2014-5-26,86.2,73.1,54.6,36.9,34.1,30.3,45,26,14,29.89,29.78,11,6,17,0.00
2014-5-27,93.8,79.5,61.5,38.3,32.0,24.6,35,20,9,29.88,29.68,10,4,27,0.00
2014-5-28,93.5,80.0,61.0,34.5,29.1,17.9,33,17,9,29.75,29.59,11,4,19,0.00
2014-5-29,80.0,73.3,60.6,47.7,37.9,24.5,48,29,15,29.79,29.66,14,5,19,0.00
2014-5-30,92.2,76.3,55.6,44.8,40.2,34.6,59,31,15,29.83,29.66,8,3,12,0.00
2014-5-31,95.2,81.9,63.8,38.5,30.0,18.9,35,17,7,29.73,29.63,12,6,19,0.00
2014-6-1,95.3,80.0,59.1,32.1,20.5,-21.8,32,14,1,29.71,29.60,11,5,17,0.00
2014-6-2,98.5,83.3,60.2,26.7,17.0,-5.1,21,10,2,29.71,29.61,10,5,15,0.00
2014-6-3,98.3,83.5,64.2,34.2,28.1,22.3,27,14,7,29.67,29.56,12,5,18,0.00
2014-6-4,98.2,82.3,63.1,26.1,14.8,1.3,21,10,3,29.67,29.55,12,6,19,0.00
2014-6-5,97.4,82.0,62.0,18.3,12.7,-1.2,16,8,3,29.65,29.51,14,5,19,0.00
2014-6-6,94.8,79.4,59.3,19.8,7.8,-21.5,15,8,1,29.62,29.52,11,5,17,0.00
2014-6-7,93.5,80.0,60.7,36.4,23.6,5.7,21,13,7,29.64,29.52,11,5,18,0.00
2014-6-8,92.3,78.9,64.1,52.1,37.9,27.1,41,24,10,29.66,29.54,10,4,22,0.00
2014-6-9,95.2,81.9,65.0,43.7,29.3,15.0,40,17,7,29.70,29.56,9,4,13,0.00
2014-6-10,94.6,83.0,65.9,47.3,34.6,20.7,43,19,10,29.66,29.56,13,6,18,0.00
2014-6-11,93.4,82.7,72.3,50.5,42.7,32.7,42,26,14,29.69,29.59,15,9,23,0.00
2014-6-12,96.2,83.2,68.4,45.4,38.8,31.4,39,22,12,29.76,29.64,13,4,22,0.00
2014-6-13,95.3,83.8,71.2,52.8,45.7,35.8,47,28,16,29.71,29.56,15,7,25,0.00
2014-6-14,91.7,81.8,72.4,47.0,39.5,32.2,29,23,14,29.63,29.53,18,10,29,0.00
2014-6-15,91.3,80.0,61.3,37.1,31.3,21.1,26,18,8,29.68,29.61,17,8,24,0.00
2014-6-16,92.5,81.5,70.2,42.6,37.3,27.9,31,21,15,29.74,29.62,16,9,21,0.00
2014-6-17,89.9,80.1,69.8,48.0,45.8,41.3,42,31,21,29.72,29.61,14,9,22,0.00
2014-6-18,87.8,77.5,66.2,46.0,43.2,39.9,44,30,20,29.72,29.64,15,7,26,0.00
2014-6-19,88.9,78.8,58.0,43.9,39.6,36.0,52,27,16,29.81,29.69,8,2,15,0.00
2014-6-20,94.7,81.8,63.7,39.9,36.4,33.3,36,21,12,29.78,29.61,9,4,16,0.00
2014-6-21,93.7,82.4,68.0,41.0,38.5,36.1,35,22,14,29.73,29.60,10,5,18,0.00
2014-6-22,94.2,82.8,70.1,42.7,39.7,33.4,31,22,16,29.74,29.59,10,5,16,0.00
2014-6-23,94.3,82.6,67.7,44.7,39.8,33.7,34,23,14,29.73,29.62,12,5,17,0.00
2014-6-24,93.2,82.3,68.1,51.3,42.9,34.7,46,26,14,29.78,29.65,11,5,20,0.00
2014-6-25,93.5,83.0,70.5,54.6,49.1,41.6,52,33,17,29.74,29.61,12,6,20,0.00
2014-6-26,93.1,83.0,71.4,55.4,48.7,40.6,52,32,17,29.70,29.56,13,8,19,0.00
2014-6-27,91.3,81.7,72.0,47.2,37.9,25.0,30,22,11,29.64,29.52,14,9,21,0.00
2014-6-28,93.8,81.2,61.8,41.6,37.0,30.1,42,22,11,29.70,29.61,9,4,17,0.00
2014-6-29,97.1,84.5,69.3,58.5,42.7,21.9,61,28,7,29.76,29.63,9,4,18,0.00
2014-6-30,96.5,83.7,70.1,56.4,40.5,18.7,57,26,7,29.74,29.58,10,5,17,0.00
2014-7-1,96.4,84.2,71.4,43.0,36.9,27.9,33,20,12,29.72,29.58,9,5,15,0.00
2014-7-2,95.3,82.4,71.6,58.3,45.7,33.6,60,30,16,29.77,29.59,10,4,15,0.14
2014-7-3,90.5,76.0,65.4,62.1,55.5,45.8,89,52,24,29.93,29.71,19,3,27,0.08
2014-7-4,83.2,71.8,63.8,64.5,59.8,54.8,93,69,40,29.94,29.83,15,3,20,0.22
2014-7-5,87.0,73.4,65.5,65.6,60.7,53.0,93,67,34,29.97,29.84,13,3,17,0.03
2014-7-6,84.7,73.6,65.5,66.1,61.8,56.0,86,68,40,29.88,29.76,14,1,18,0.36
2014-7-7,81.1,69.8,65.0,64.8,62.2,59.8,94,78,54,29.83,29.70,12,3,16,0.19
2014-7-8,88.5,74.2,62.5,63.5,59.3,53.5,87,62,33,29.90,29.75,14,3,18,0.13
2014-7-9,86.8,72.4,60.8,61.8,58.4,54.2,88,64,36,29.90,29.74,14,4,18,0.57
2014-7-10,90.1,75.7,62.7,61.8,58.4,54.3,87,58,31,29.86,29.69,16,4,21,0.25
2014-7-11,88.8,74.3,62.9,62.3,59.4,54.5,93,63,32,29.93,29.70,15,4,19,0.86
2014-7-12,88.9,73.6,62.6,63.7,60.2,55.6,93,66,35,29.90,29.73,14,2,15,0.05
2014-7-13,88.3,74.6,64.8,66.4,60.9,53.5,91,66,34,29.87,29.74,18,3,21,0.03
2014-7-14,86.9,73.8,65.8,66.2,62.5,57.5,93,71,39,29.94,29.79,10,2,13,0.21
2014-7-15,79.1,70.5,65.0,63.9,60.7,57.5,89,72,51,29.93,29.82,12,3,14,0.01
2014-7-16,85.6,75.6,65.4,62.5,59.1,55.4,82,58,38,29.88,29.71,11,3,18,0.00
2014-7-17,86.1,77.7,70.0,56.8,47.8,40.7,54,36,26,29.81,29.71,10,5,19,0.00
2014-7-18,89.4,78.0,67.0,57.8,47.8,39.4,45,35,25,29.84,29.71,12,4,21,0.00
2014-7-19,90.8,79.9,66.4,54.3,51.1,47.2,56,38,26,29.83,29.71,8,3,15,0.00
2014-7-20,90.9,80.4,68.2,58.8,50.8,45.4,58,38,24,29.84,29.72,9,3,16,0.00
2014-7-21,90.7,81.5,69.8,58.9,51.1,42.5,66,37,22,29.85,29.75,10,3,14,0.00
2014-7-22,94.0,82.1,68.0,60.7,49.0,42.6,61,32,23,29.89,29.74,16,1,28,0.00
2014-7-23,92.8,81.5,69.8,61.0,56.6,48.6,67,45,26,29.89,29.72,13,3,18,0.00
2014-7-24,95.2,83.4,68.4,62.3,51.0,40.4,61,36,17,29.80,29.65,12,4,21,0.00
2014-7-25,92.6,77.6,68.0,64.1,59.8,52.2,74,56,27,29.83,29.70,16,4,23,0.02
2014-7-26,91.7,79.9,64.6,59.4,57.4,55.0,75,49,32,29.86,29.68,14,7,19,0.00
2014-7-27,91.4,76.4,64.8,63.9,57.6,50.5,92,55,27,29.94,29.72,16,6,22,0.29
2014-7-28,83.8,73.9,64.0,66.1,61.9,56.6,95,69,40,30.00,29.87,8,2,13,0.07
2014-7-29,88.0,76.7,68.0,67.8,61.0,55.9,81,60,35,29.92,29.78,13,2,21,0.28
2014-7-30,89.5,76.8,69.6,65.5,57.5,50.2,70,52,32,29.85,29.77,13,3,18,0.03
2014-7-31,87.8,77.9,68.1,61.2,56.7,52.7,67,49,32,29.89,29.74,6,2,10,0.00
2014-8-1,84.0,73.4,63.1,64.0,60.4,55.5,94,66,39,29.90,29.72,11,3,16,0.93
2014-8-2,78.8,68.2,63.3,64.5,62.6,59.8,96,83,57,29.90,29.79,10,1,16,0.18
2014-8-3,85.9,73.7,61.5,64.4,60.2,53.7,97,67,36,29.92,29.79,3,0,7,0.01
2014-8-4,87.2,75.7,62.8,62.5,57.3,49.6,89,56,29,29.87,29.74,9,2,14,0.00
2014-8-5,89.8,76.3,61.5,58.1,49.9,41.2,77,43,19,29.90,29.79,8,2,11,0.00
2014-8-6,90.7,78.9,63.3,56.4,51.4,44.3,69,40,24,29.86,29.71,10,2,16,0.00
2014-8-7,85.9,76.4,65.3,58.4,52.6,44.2,63,45,26,29.82,29.72,9,2,13,0.00
2014-8-8,87.6,76.4,67.0,64.4,58.2,48.1,85,56,26,29.82,29.68,10,4,15,0.00
2014-8-9,88.7,73.2,61.3,61.4,59.0,54.5,93,64,32,29.94,29.71,12,4,21,1.15
2014-8-10,83.8,73.1,62.1,66.3,60.1,55.1,94,66,38,29.92,29.80,8,1,14,0.03
2014-8-11,86.5,75.3,64.9,64.0,61.7,57.3,93,65,39,29.90,29.74,12,4,18,0.01
2014-8-12,81.6,72.0,63.3,65.6,62.2,58.9,92,73,50,29.87,29.76,14,2,21,0.07
2014-8-13,85.1,71.6,63.1,66.6,62.2,56.9,94,75,41,29.92,29.79,10,2,15,0.04
2014-8-14,80.0,72.0,64.0,66.5,63.2,60.8,91,75,53,29.91,29.81,9,2,12,0.01
2014-8-15,83.4,71.9,64.0,67.4,63.8,57.6,92,77,46,29.90,29.78,17,2,32,0.73
2014-8-16,84.1,73.7,62.3,67.5,62.5,56.1,90,69,47,29.92,29.78,10,3,16,0.36
2014-8-17,88.4,73.4,63.9,65.5,60.7,55.6,89,66,40,29.88,29.72,16,3,25,0.08
2014-8-18,84.1,71.6,63.4,64.1,60.8,55.0,94,71,38,29.83,29.69,10,2,15,0.14
2014-8-19,81.1,69.4,61.8,65.4,62.3,56.9,94,80,49,29.81,29.70,14,4,26,0.80
2014-8-20,78.9,69.6,62.9,64.1,60.0,55.6,87,73,49,29.86,29.77,8,2,11,0.08
2014-8-21,78.5,68.8,62.9,64.9,61.5,57.6,94,78,51,29.88,29.80,12,2,18,0.41
2014-8-22,76.2,66.8,60.8,65.0,60.0,55.8,93,80,55,29.90,29.81,5,0,10,0.08
2014-8-23,82.1,70.9,59.7,63.2,59.4,55.5,94,70,43,29.87,29.73,6,1,10,0.02
2014-8-24,85.3,73.5,60.8,60.9,57.4,52.5,87,60,35,29.81,29.71,8,2,12,0.01
2014-8-25,81.6,71.1,64.3,64.7,62.0,57.9,89,74,48,29.87,29.73,10,3,11,0.00
2014-8-26,80.8,69.8,64.0,66.0,62.9,58.6,93,80,50,29.91,29.83,8,1,16,0.19
2014-8-27,85.5,72.9,62.5,65.3,61.0,56.0,96,69,40,29.96,29.84,6,1,13,0.01
2014-8-28,86.6,74.3,60.6,61.2,54.6,48.7,86,54,28,29.88,29.73,5,1,10,0.00
2014-8-29,88.8,75.2,59.9,55.8,49.6,43.0,72,44,22,29.78,29.67,5,1,9,0.00
2014-8-30,92.3,77.5,58.9,55.9,49.2,45.5,69,40,21,29.79,29.67,5,2,10,0.00
2014-8-31,90.1,78.7,63.4,54.9,49.6,45.2,58,37,24,29.76,29.66,9,4,15,0.00
2014-9-1,91.5,76.6,59.9,51.0,48.3,43.0,61,40,21,29.78,29.67,8,2,12,0.00
2014-9-2,92.8,78.9,62.6,54.5,48.4,42.3,64,37,19,29.77,29.62,7,2,19,0.00
2014-9-3,88.3,77.4,64.7,58.2,53.0,46.2,72,44,26,29.70,29.58,10,1,14,0.00
2014-9-4,88.5,72.6,62.6,64.6,56.3,52.5,90,59,31,29.77,29.57,12,4,20,0.07
2014-9-5,84.0,72.1,58.7,61.1,58.4,54.1,93,65,38,29.86,29.76,9,2,12,0.00
2014-9-6,78.9,68.7,64.1,64.8,61.9,57.5,95,80,57,29.86,29.80,11,1,18,0.19
2014-9-7,80.5,71.4,64.0,67.4,62.6,60.4,94,75,52,29.89,29.73,8,2,12,0.00
2014-9-8,75.6,67.8,63.6,66.5,64.3,62.3,97,89,69,29.86,29.74,9,1,12,0.34
2014-9-9,82.4,70.5,60.5,65.3,58.5,51.0,97,70,35,29.90,29.77,10,3,15,0.01
2014-9-10,83.4,70.2,56.3,58.0,52.0,42.6,86,57,25,29.86,29.75,7,2,12,0.00
2014-9-11,85.9,72.0,57.7,58.7,54.3,49.9,85,57,31,29.81,29.69,5,2,9,0.00
2014-9-12,87.0,73.3,57.9,61.6,56.0,53.4,86,57,33,29.79,29.67,10,3,15,0.00
2014-9-13,80.9,70.3,62.1,58.8,56.5,54.0,82,63,42,29.83,29.72,8,4,14,0.00
2014-9-14,83.2,72.2,61.7,58.9,56.5,54.2,77,59,43,29.83,29.71,6,2,12,0.00
2014-9-15,82.7,72.7,60.2,66.4,59.1,55.7,88,64,42,29.85,29.73,8,1,11,0.08
2014-9-16,71.3,66.0,62.3,66.7,63.3,59.1,97,91,73,29.86,29.75,9,2,12,0.54
2014-9-17,69.2,64.5,62.4,66.2,63.3,61.4,98,96,87,29.80,29.68,10,3,14,2.16
2014-9-18,75.3,67.1,61.5,65.6,63.5,60.9,99,89,69,29.75,29.65,5,1,9,0.32
2014-9-19,79.8,69.9,62.5,66.1,63.7,61.1,96,82,57,29.79,29.69,7,1,10,0.00
2014-9-20,83.3,71.0,63.8,66.6,63.3,60.5,95,78,47,29.84,29.73,10,1,16,0.00
2014-9-21,79.7,69.5,62.1,70.0,63.9,60.0,95,83,61,29.92,29.76,6,1,10,0.32
2014-9-22,82.7,70.7,59.3,67.6,63.0,58.0,97,78,53,29.94,29.81,5,1,9,0.00
2014-9-23,83.3,71.9,61.1,67.4,63.3,59.7,97,76,50,29.89,29.75,5,1,9,0.00
2014-9-24,86.3,73.2,60.3,66.0,60.4,53.9,94,68,34,29.87,29.75,7,1,13,0.00
2014-9-25,85.7,72.7,59.7,62.6,59.1,52.3,92,65,34,29.88,29.76,5,1,12,0.00
2014-9-26,78.0,67.8,59.4,61.7,58.9,56.2,91,75,52,29.86,29.75,7,2,11,0.00
2014-9-27,64.5,59.7,57.9,59.8,56.8,55.6,93,90,83,29.79,29.76,1,0,3,0.00
2014-9-28,78.7,68.1,59.6,60.7,57.1,51.4,91,71,40,29.79,29.71,11,3,16,0.00
2014-9-29,80.5,69.0,57.6,61.7,56.1,49.0,93,66,38,29.78,29.69,11,4,19,0.00
2014-9-30,80.1,64.7,49.4,54.0,43.7,33.3,86,52,20,29.79,29.69,8,3,13,0.00
2014-10-1,79.7,64.8,47.7,44.2,38.5,28.3,78,43,16,29.82,29.71,9,4,16,0.00
2014-10-2,78.5,62.5,48.5,45.9,39.3,30.3,75,46,18,29.98,29.82,5,3,10,0.00
2014-10-3,84.2,64.7,43.8,42.0,37.6,34.4,75,42,18,30.07,29.96,6,2,11,0.00
2014-10-4,86.5,69.6,51.1,46.5,40.5,27.3,67,39,12,30.00,29.84,8,3,16,0.00
2014-10-5,82.8,68.7,52.3,52.5,47.5,44.2,75,49,29,29.89,29.76,10,3,16,0.00
2014-10-6,82.8,67.3,53.7,47.1,41.6,31.6,64,42,18,29.90,29.80,7,2,10,0.00
2014-10-7,79.8,64.9,57.0,63.8,52.8,39.3,94,67,41,29.91,29.79,10,2,13,0.80
2014-10-8,73.7,61.9,58.0,61.3,58.6,56.1,97,89,56,29.86,29.72,7,1,11,0.68
2014-10-9,71.6,63.0,57.3,58.3,56.1,52.1,92,79,55,29.88,29.78,12,5,19,0.01
2014-10-10,76.5,64.0,50.3,55.9,52.1,44.9,96,69,33,29.96,29.86,7,2,14,0.00
2014-10-11,78.5,63.7,50.1,56.8,47.8,37.8,94,62,25,29.97,29.84,4,1,8,0.00
2014-10-12,77.3,65.5,51.6,48.5,43.9,35.8,86,50,24,29.87,29.75,13,7,19,0.00
2014-10-13,77.5,62.0,48.4,47.7,43.5,36.9,86,55,27,29.98,29.83,8,2,10,0.00
2014-10-14,79.3,61.9,45.8,46.7,39.9,33.4,86,50,19,30.03,29.88,6,2,11,0.00
2014-10-15,84.5,65.4,48.4,48.0,41.1,31.4,79,45,16,29.96,29.83,8,2,10,0.00
2014-10-16,82.1,66.8,52.8,53.4,45.2,32.3,84,51,17,29.90,29.80,9,3,13,0.00
2014-10-17,77.1,63.3,52.0,46.1,41.0,28.0,75,48,19,29.89,29.80,7,2,10,0.00
2014-10-18,81.0,64.5,48.4,48.1,42.6,35.9,79,49,20,29.86,29.71,9,3,15,0.00
2014-10-19,75.9,62.6,51.7,49.9,46.0,38.3,84,57,26,29.84,29.68,12,3,17,0.00
2014-10-20,73.1,60.5,49.2,51.7,47.0,40.2,87,63,32,29.87,29.78,7,1,11,0.00
2014-10-21,75.2,60.1,46.8,49.4,45.3,40.9,92,62,31,29.89,29.78,4,1,8,0.00
2014-10-22,78.3,61.9,48.1,52.5,46.2,41.7,89,61,28,29.95,29.86,5,1,10,0.00
2014-10-23,80.2,63.0,47.4,51.8,46.1,43.1,86,58,29,30.03,29.91,5,2,8,0.00
2014-10-24,84.2,66.0,49.0,50.5,45.8,43.2,83,52,24,30.06,29.93,5,2,8,0.00
2014-10-25,85.0,68.5,53.2,50.6,47.8,44.0,74,51,28,30.01,29.88,9,2,12,0.00
2014-10-26,82.3,68.3,55.0,53.8,49.7,44.6,78,55,28,29.89,29.71,14,4,24,0.00
2014-10-27,76.8,65.1,54.0,53.4,46.1,28.0,84,54,18,29.86,29.68,9,3,14,0.00
2014-10-28,76.5,60.0,44.9,50.2,43.9,38.3,92,59,30,29.99,29.86,5,2,7,0.00
2014-10-29,79.0,60.5,44.6,45.8,40.2,36.8,80,51,23,30.04,29.93,5,2,9,0.00
2014-10-30,80.3,63.2,45.2,45.1,38.7,31.3,78,45,18,30.04,29.92,6,2,11,0.00
2014-10-31,79.6,65.8,52.6,49.5,44.5,37.4,72,48,33,29.94,29.78,11,2,15,0.00
2014-11-1,76.5,64.2,51.7,46.5,41.2,27.1,77,47,17,29.83,29.73,15,4,22,0.00
2014-11-2,67.8,58.1,43.2,51.3,46.1,34.9,77,65,50,29.88,29.72,17,7,23,0.00
2014-11-3,60.7,48.2,35.0,38.3,32.6,25.2,88,58,34,30.06,29.88,10,4,15,0.00
2014-11-4,61.2,48.3,32.5,34.6,30.2,26.1,78,52,29,30.10,30.00,12,4,18,0.00
2014-11-5,64.3,52.2,38.9,42.4,38.6,33.6,84,61,43,30.18,30.03,10,4,15,0.00
2014-11-6,65.7,54.2,45.1,43.3,39.3,35.7,76,59,37,30.27,30.16,13,5,20,0.00
2014-11-7,71.5,53.4,42.3,42.3,39.0,35.8,88,62,30,30.19,30.01,5,1,7,0.00
2014-11-8,72.8,56.5,40.2,38.7,35.0,32.0,78,48,24,30.15,30.03,8,2,14,0.00
2014-11-9,76.3,59.1,43.6,39.9,36.6,33.7,74,45,22,30.08,29.80,7,1,10,0.00
2014-11-10,72.5,62.5,50.6,43.8,36.4,30.1,64,39,25,29.83,29.72,14,6,25,0.00
2014-11-11,71.8,60.7,49.5,47.7,44.3,40.1,76,57,33,29.85,29.76,10,4,19,0.00
2014-11-12,71.6,60.0,46.5,49.9,44.4,34.8,91,60,27,29.92,29.78,10,4,15,0.00
2014-11-13,71.8,59.3,43.1,49.9,43.7,36.9,94,60,29,29.99,29.90,10,4,17,0.00
2014-11-14,72.0,60.7,46.4,50.4,43.3,31.6,88,56,23,29.93,29.80,13,5,19,0.00
2014-11-15,67.5,56.3,47.7,46.9,40.6,28.4,89,60,25,29.97,29.85,9,4,14,0.00
2014-11-16,59.6,50.6,30.7,44.8,34.9,19.0,77,56,31,30.10,29.81,14,8,21,0.00
2014-11-17,57.8,44.0,30.0,28.0,19.8,11.0,65,39,29,30.22,30.10,8,3,11,0.00
2014-11-18,61.0,43.7,28.3,24.1,18.0,9.3,68,39,14,30.29,30.17,5,2,10,0.00
2014-11-19,69.4,46.5,28.9,21.8,15.4,-9.8,60,33,4,30.25,30.08,7,1,8,0.00
2014-11-20,67.8,49.1,32.9,21.9,15.2,-3.0,51,30,6,30.12,29.96,8,4,12,0.00
2014-11-21,64.8,48.0,33.0,36.2,22.7,18.0,75,40,18,29.99,29.85,10,4,18,0.00
2014-11-22,64.5,47.3,30.6,32.7,26.8,21.9,85,50,20,30.10,29.95,10,4,13,0.00
2014-11-23,59.2,49.5,32.8,33.6,25.9,0.6,54,40,22,30.11,29.91,15,7,22,0.00
2014-11-24,57.9,40.6,22.7,7.6,1.9,-6.7,45,23,7,30.38,30.11,12,5,23,0.00
2014-11-25,59.6,42.8,26.7,5.3,2.3,-5.3,35,20,7,30.46,30.31,10,3,14,0.00
2014-11-26,69.3,47.4,29.6,20.1,11.6,0.6,45,26,11,30.38,30.23,5,2,9,0.00
2014-11-27,71.8,56.2,35.9,23.7,21.4,18.6,53,28,14,30.28,30.11,6,2,11,0.00
2014-11-28,75.0,53.8,36.1,24.5,21.3,18.0,53,31,12,30.11,29.93,5,1,8,0.00
2014-11-29,72.3,57.0,41.5,23.1,17.8,0.8,44,25,6,29.97,29.85,11,4,16,0.00
2014-11-30,68.2,56.8,42.3,24.4,19.8,13.6,42,25,13,30.06,29.90,10,4,14,0.00
2014-12-1,63.5,47.4,33.0,26.6,22.2,19.8,63,40,19,30.19,30.05,5,2,7,0.00
2014-12-2,69.2,53.2,34.2,48.5,28.3,2.4,81,44,7,30.11,29.98,9,2,14,0.00
2014-12-3,71.0,56.9,45.0,50.4,47.2,42.8,94,72,45,30.04,29.92,7,1,10,0.00
2014-12-4,59.0,51.5,40.2,53.4,47.1,37.8,94,85,66,30.07,29.86,13,4,17,0.18
2014-12-5,61.7,48.8,35.4,47.3,42.0,33.8,97,79,49,30.22,30.07,5,1,8,0.00
2014-12-6,58.7,46.9,37.6,44.5,40.8,35.3,95,81,47,30.21,30.13,12,1,20,0.02
2014-12-7,64.5,51.7,35.1,42.6,39.5,33.1,95,66,39,30.25,30.12,9,2,13,0.00
2014-12-8,65.6,55.8,47.2,41.4,39.6,38.4,76,56,39,30.13,30.00,8,2,11,0.00
2014-12-9,71.8,57.4,44.8,43.5,40.7,37.6,76,55,32,30.04,29.89,7,2,9,0.00
2014-12-10,68.7,52.2,39.9,45.7,36.3,27.6,90,60,22,30.01,29.90,8,2,13,0.00
2014-12-11,69.7,50.3,34.1,35.1,27.7,17.8,83,48,15,30.10,29.98,10,2,14,0.00
2014-12-12,68.3,56.3,42.2,41.5,35.5,26.5,59,46,33,30.10,29.97,12,3,19,0.00
2014-12-13,58.4,48.9,34.8,46.8,41.2,32.3,92,76,55,30.02,29.81,15,6,20,0.19
2014-12-14,56.0,38.8,27.9,37.8,30.2,24.3,94,75,30,30.15,30.01,9,2,13,0.01
2014-12-15,61.3,43.1,28.0,35.8,30.0,25.0,92,64,28,30.18,30.05,4,1,7,0.00
2014-12-16,61.4,49.2,37.9,39.4,34.1,30.8,81,58,36,30.07,29.92,11,2,15,0.00
2014-12-17,50.4,44.9,38.6,42.8,39.3,34.6,94,81,62,30.12,29.96,16,6,19,0.10
2014-12-18,51.2,41.7,31.6,44.6,39.0,29.3,97,90,67,30.19,30.03,11,2,21,0.08
2014-12-19,51.2,37.6,27.5,37.6,30.5,25.7,95,78,43,30.29,30.16,4,1,8,0.01
2014-12-20,58.9,40.9,26.3,34.4,28.3,22.7,92,65,26,30.22,30.09,4,1,9,0.00
2014-12-21,59.6,45.9,30.6,34.8,30.5,23.5,81,57,37,30.16,30.00,10,3,13,0.00
2014-12-22,62.2,48.9,34.3,38.6,35.2,29.8,85,61,39,30.04,29.85,13,4,18,0.00
2014-12-23,51.4,44.9,31.4,39.0,24.5,10.3,90,49,25,30.14,29.91,14,4,20,0.00
2014-12-24,56.1,39.4,24.1,18.3,12.0,2.1,61,36,12,30.23,29.93,3,1,9,0.00
2014-12-25,61.1,51.3,36.1,40.7,20.3,7.5,91,36,15,29.93,29.63,20,12,29,0.01
2014-12-26,47.6,37.1,24.5,34.4,20.1,9.7,88,53,22,30.11,29.70,14,7,24,0.00
2014-12-27,43.6,30.4,18.6,18.1,13.5,8.9,80,53,24,30.40,30.11,7,3,11,0.00
2014-12-28,54.0,35.6,18.1,23.0,16.5,11.4,81,50,19,30.39,30.19,5,1,8,0.00
2014-12-29,60.2,41.8,25.2,16.5,11.1,2.0,65,33,10,30.20,30.07,7,2,12,0.00
2014-12-30,63.5,51.2,39.5,18.6,12.2,0.5,37,23,9,30.08,29.86,14,4,21,0.00
2014-12-31,56.1,46.1,33.4,35.6,21.4,6.3,92,43,17,29.87,29.76,21,9,32,0.12
2015-1-1,45.4,32.4,25.6,30.2,25.6,19.8,93,77,44,30.06,29.87,15,5,18,0.00
2015-1-2,37.9,28.5,21.5,29.4,24.2,18.1,96,84,65,30.18,30.00,10,4,14,0.01